sensor_id;sensor_type;location;lat;lon;timestamp;pressure;altitude;pressure_sealevel;temperature;humidity
36234;BME280;43467;50.890;5.982;2023-04-08T00:00:55;100789.94;;;10.32;80.70
36234;BME280;43467;50.890;5.982;2023-04-08T00:03:21;100796.78;;;10.39;80.47
36234;BME280;43467;50.890;5.982;2023-04-08T00:05:46;100783.03;;;10.27;81.00
36234;BME280;43467;50.890;5.982;2023-04-08T00:08:11;100790.72;;;10.35;81.08
36234;BME280;43467;50.890;5.982;2023-04-08T00:10:37;100789.75;;;10.38;80.62
36234;BME280;43467;50.890;5.982;2023-04-08T00:13:03;100789.63;;;10.41;80.76
36234;BME280;43467;50.890;5.982;2023-04-08T00:15:28;100787.13;;;10.36;80.86
36234;BME280;43467;50.890;5.982;2023-04-08T00:17:54;100790.59;;;10.38;80.62
36234;BME280;43467;50.890;5.982;2023-04-08T00:20:21;100793.25;;;10.38;80.85
36234;BME280;43467;50.890;5.982;2023-04-08T00:22:46;100789.84;;;10.35;80.84
36234;BME280;43467;50.890;5.982;2023-04-08T00:25:12;100784.81;;;10.27;81.08
36234;BME280;43467;50.890;5.982;2023-04-08T00:27:37;100792.34;;;10.39;81.08
36234;BME280;43467;50.890;5.982;2023-04-08T00:30:03;100792.75;;;10.27;81.15
36234;BME280;43467;50.890;5.982;2023-04-08T00:32:28;100797.28;;;10.23;81.38
36234;BME280;43467;50.890;5.982;2023-04-08T00:34:54;100792.72;;;10.29;81.53
36234;BME280;43467;50.890;5.982;2023-04-08T00:37:19;100799.34;;;10.40;81.31
36234;BME280;43467;50.890;5.982;2023-04-08T00:39:45;100800.63;;;10.53;80.88
36234;BME280;43467;50.890;5.982;2023-04-08T00:42:11;100797.41;;;10.45;80.43
36234;BME280;43467;50.890;5.982;2023-04-08T00:44:36;100797.72;;;10.36;80.67
36234;BME280;43467;50.890;5.982;2023-04-08T00:47:02;100787.53;;;10.25;80.80
36234;BME280;43467;50.890;5.982;2023-04-08T00:49:29;100798.56;;;10.38;81.08
36234;BME280;43467;50.890;5.982;2023-04-08T00:51:55;100803.88;;;10.37;80.91
36234;BME280;43467;50.890;5.982;2023-04-08T00:54:20;100793.03;;;10.19;80.98
36234;BME280;43467;50.890;5.982;2023-04-08T00:56:46;100800.09;;;10.19;81.06
36234;BME280;43467;50.890;5.982;2023-04-08T00:59:11;100797.41;;;10.20;81.76
36234;BME280;43467;50.890;5.982;2023-04-08T01:01:45;100799.66;;;10.31;80.98
36234;BME280;43467;50.890;5.982;2023-04-08T01:05:02;100799.34;;;10.40;80.84
36234;BME280;43467;50.890;5.982;2023-04-08T01:09:52;100798.44;;;10.16;81.47
36234;BME280;43467;50.890;5.982;2023-04-08T01:12:31;100803.44;;;10.24;81.24
36234;BME280;43467;50.890;5.982;2023-04-08T01:15:04;100798.88;;;10.29;80.93
36234;BME280;43467;50.890;5.982;2023-04-08T01:17:31;100809.97;;;10.14;81.95
36234;BME280;43467;50.890;5.982;2023-04-08T01:19:59;100807.81;;;9.99;82.33
36234;BME280;43467;50.890;5.982;2023-04-08T01:25:01;100800.69;;;10.02;82.50
36234;BME280;43467;50.890;5.982;2023-04-08T01:27:30;100805.09;;;10.02;82.69
36234;BME280;43467;50.890;5.982;2023-04-08T01:29:58;100805.97;;;9.76;84.29
36234;BME280;43467;50.890;5.982;2023-04-08T01:32:25;100808.56;;;9.77;84.10
36234;BME280;43467;50.890;5.982;2023-04-08T01:34:52;100799.50;;;9.85;83.78
36234;BME280;43467;50.890;5.982;2023-04-08T01:37:19;100810.16;;;10.08;82.94
36234;BME280;43467;50.890;5.982;2023-04-08T01:39:46;100814.09;;;9.96;83.09
36234;BME280;43467;50.890;5.982;2023-04-08T01:42:12;100802.31;;;9.80;84.12
36234;BME280;43467;50.890;5.982;2023-04-08T01:44:39;100807.00;;;9.98;83.77
36234;BME280;43467;50.890;5.982;2023-04-08T01:47:05;100807.31;;;10.14;82.77
36234;BME280;43467;50.890;5.982;2023-04-08T01:49:31;100806.16;;;9.96;83.13
36234;BME280;43467;50.890;5.982;2023-04-08T01:51:57;100808.00;;;9.94;83.66
36234;BME280;43467;50.890;5.982;2023-04-08T01:54:23;100807.63;;;10.05;83.03
36234;BME280;43467;50.890;5.982;2023-04-08T01:56:50;100806.53;;;9.86;83.88
36234;BME280;43467;50.890;5.982;2023-04-08T01:59:20;100807.47;;;9.83;84.06
36234;BME280;43467;50.890;5.982;2023-04-08T02:01:49;100808.81;;;9.96;83.86
36234;BME280;43467;50.890;5.982;2023-04-08T02:04:16;100810.88;;;9.87;84.03
36234;BME280;43467;50.890;5.982;2023-04-08T02:06:41;100809.78;;;9.94;83.74
36234;BME280;43467;50.890;5.982;2023-04-08T02:09:07;100810.75;;;9.91;83.86
36234;BME280;43467;50.890;5.982;2023-04-08T02:11:32;100807.47;;;9.83;84.22
36234;BME280;43467;50.890;5.982;2023-04-08T02:13:58;100805.81;;;9.80;84.72
36234;BME280;43467;50.890;5.982;2023-04-08T02:16:38;100805.53;;;9.90;84.53
36234;BME280;43467;50.890;5.982;2023-04-08T02:19:14;100812.09;;;10.03;83.80
36234;BME280;43467;50.890;5.982;2023-04-08T02:21:48;100812.81;;;10.08;83.26
36234;BME280;43467;50.890;5.982;2023-04-08T02:24:17;100819.56;;;10.18;82.83
36234;BME280;43467;50.890;5.982;2023-04-08T02:26:43;100812.22;;;10.26;82.44
36234;BME280;43467;50.890;5.982;2023-04-08T02:29:14;100819.94;;;10.32;82.52
36234;BME280;43467;50.890;5.982;2023-04-08T02:31:41;100811.03;;;10.35;82.10
36234;BME280;43467;50.890;5.982;2023-04-08T02:34:09;100815.19;;;10.42;81.84
36234;BME280;43467;50.890;5.982;2023-04-08T02:36:35;100811.78;;;10.38;81.58
36234;BME280;43467;50.890;5.982;2023-04-08T02:39:04;100814.00;;;10.50;81.28
36234;BME280;43467;50.890;5.982;2023-04-08T02:41:30;100821.59;;;10.59;81.32
36234;BME280;43467;50.890;5.982;2023-04-08T02:43:55;100821.38;;;10.65;80.98
36234;BME280;43467;50.890;5.982;2023-04-08T02:46:21;100824.84;;;10.67;80.44
36234;BME280;43467;50.890;5.982;2023-04-08T02:48:46;100819.34;;;10.72;80.26
36234;BME280;43467;50.890;5.982;2023-04-08T02:51:12;100820.47;;;10.66;80.69
36234;BME280;43467;50.890;5.982;2023-04-08T02:53:37;100822.41;;;10.61;80.80
36234;BME280;43467;50.890;5.982;2023-04-08T02:56:03;100825.28;;;10.55;80.91
36234;BME280;43467;50.890;5.982;2023-04-08T02:58:28;100826.13;;;10.56;81.33
36234;BME280;43467;50.890;5.982;2023-04-08T03:00:54;100818.38;;;10.51;80.96
36234;BME280;43467;50.890;5.982;2023-04-08T03:03:19;100818.97;;;10.59;80.96
36234;BME280;43467;50.890;5.982;2023-04-08T03:05:52;100825.81;;;10.65;80.70
36234;BME280;43467;50.890;5.982;2023-04-08T03:08:18;100823.31;;;10.60;80.51
36234;BME280;43467;50.890;5.982;2023-04-08T03:10:43;100829.34;;;10.64;80.60
36234;BME280;43467;50.890;5.982;2023-04-08T03:13:08;100826.63;;;10.67;80.53
36234;BME280;43467;50.890;5.982;2023-04-08T03:15:34;100832.78;;;10.67;80.19
36234;BME280;43467;50.890;5.982;2023-04-08T03:17:59;100826.63;;;10.67;80.01
36234;BME280;43467;50.890;5.982;2023-04-08T03:20:25;100833.88;;;10.62;80.45
36234;BME280;43467;50.890;5.982;2023-04-08T03:22:50;100833.69;;;10.66;80.14
36234;BME280;43467;50.890;5.982;2023-04-08T03:25:16;100834.22;;;10.76;80.04
36234;BME280;43467;50.890;5.982;2023-04-08T03:27:41;100829.72;;;10.78;79.89
36234;BME280;43467;50.890;5.982;2023-04-08T03:30:07;100839.19;;;10.60;80.06
36234;BME280;43467;50.890;5.982;2023-04-08T03:32:32;100840.22;;;10.56;80.54
36234;BME280;43467;50.890;5.982;2023-04-08T03:34:58;100828.41;;;10.42;80.43
36234;BME280;43467;50.890;5.982;2023-04-08T03:37:23;100833.75;;;10.40;81.33
36234;BME280;43467;50.890;5.982;2023-04-08T03:39:49;100838.13;;;10.41;81.62
36234;BME280;43467;50.890;5.982;2023-04-08T03:42:14;100841.22;;;10.29;81.61
36234;BME280;43467;50.890;5.982;2023-04-08T03:44:40;100841.94;;;10.34;81.29
36234;BME280;43467;50.890;5.982;2023-04-08T03:47:05;100844.31;;;10.42;81.47
36234;BME280;43467;50.890;5.982;2023-04-08T03:49:30;100843.56;;;10.38;81.24
36234;BME280;43467;50.890;5.982;2023-04-08T03:51:56;100840.38;;;10.27;81.74
36234;BME280;43467;50.890;5.982;2023-04-08T03:54:21;100838.13;;;10.16;81.90
36234;BME280;43467;50.890;5.982;2023-04-08T03:56:48;100840.47;;;10.25;82.05
36234;BME280;43467;50.890;5.982;2023-04-08T03:59:14;100835.22;;;10.24;82.35
36234;BME280;43467;50.890;5.982;2023-04-08T04:01:39;100832.84;;;10.16;82.39
36234;BME280;43467;50.890;5.982;2023-04-08T04:04:05;100834.63;;;10.16;82.56
36234;BME280;43467;50.890;5.982;2023-04-08T04:06:30;100836.50;;;10.11;82.70
36234;BME280;43467;50.890;5.982;2023-04-08T04:08:56;100832.78;;;10.18;82.58
36234;BME280;43467;50.890;5.982;2023-04-08T04:11:21;100837.34;;;10.13;82.52
36234;BME280;43467;50.890;5.982;2023-04-08T04:13:47;100825.22;;;10.32;82.17
36234;BME280;43467;50.890;5.982;2023-04-08T04:16:14;100841.41;;;10.23;82.01
36234;BME280;43467;50.890;5.982;2023-04-08T04:18:39;100832.56;;;9.98;83.04
36234;BME280;43467;50.890;5.982;2023-04-08T04:21:05;100841.00;;;9.82;84.37
36234;BME280;43467;50.890;5.982;2023-04-08T04:23:31;100842.31;;;9.96;83.96
36234;BME280;43467;50.890;5.982;2023-04-08T04:25:57;100839.69;;;9.96;83.88
36234;BME280;43467;50.890;5.982;2023-04-08T04:28:22;100843.59;;;10.10;83.47
36234;BME280;43467;50.890;5.982;2023-04-08T04:30:47;100847.06;;;10.12;83.13
36234;BME280;43467;50.890;5.982;2023-04-08T04:33:14;100847.66;;;10.22;83.02
36234;BME280;43467;50.890;5.982;2023-04-08T04:35:39;100846.66;;;10.24;83.28
36234;BME280;43467;50.890;5.982;2023-04-08T04:38:05;100851.59;;;10.35;82.62
36234;BME280;43467;50.890;5.982;2023-04-08T04:40:35;100862.13;;;10.37;81.82
36234;BME280;43467;50.890;5.982;2023-04-08T04:43:01;100859.31;;;10.41;82.08
36234;BME280;43467;50.890;5.982;2023-04-08T04:45:26;100859.34;;;10.40;82.10
36234;BME280;43467;50.890;5.982;2023-04-08T04:47:51;100863.03;;;10.36;81.99
36234;BME280;43467;50.890;5.982;2023-04-08T04:50:17;100858.44;;;10.16;82.86
36234;BME280;43467;50.890;5.982;2023-04-08T04:52:42;100868.59;;;10.02;83.89
36234;BME280;43467;50.890;5.982;2023-04-08T04:55:08;100860.91;;;10.20;83.59
36234;BME280;43467;50.890;5.982;2023-04-08T04:57:34;100866.63;;;10.07;83.67
36234;BME280;43467;50.890;5.982;2023-04-08T04:59:59;100867.47;;;10.09;83.75
36234;BME280;43467;50.890;5.982;2023-04-08T05:02:25;100861.34;;;10.07;83.91
36234;BME280;43467;50.890;5.982;2023-04-08T05:04:50;100873.06;;;10.00;83.94
36234;BME280;43467;50.890;5.982;2023-04-08T05:07:18;100876.47;;;10.03;84.07
36234;BME280;43467;50.890;5.982;2023-04-08T05:09:43;100872.94;;;10.03;84.14
36234;BME280;43467;50.890;5.982;2023-04-08T05:12:09;100877.44;;;10.01;84.10
36234;BME280;43467;50.890;5.982;2023-04-08T05:14:34;100881.22;;;9.94;84.43
36234;BME280;43467;50.890;5.982;2023-04-08T05:17:00;100884.78;;;9.91;84.71
36234;BME280;43467;50.890;5.982;2023-04-08T05:19:25;100883.94;;;9.91;84.57
36234;BME280;43467;50.890;5.982;2023-04-08T05:21:50;100889.06;;;9.95;84.73
36234;BME280;43467;50.890;5.982;2023-04-08T05:24:16;100892.34;;;10.03;84.07
36234;BME280;43467;50.890;5.982;2023-04-08T05:26:41;100902.72;;;10.09;83.93
36234;BME280;43467;50.890;5.982;2023-04-08T05:29:07;100894.69;;;10.12;83.48
36234;BME280;43467;50.890;5.982;2023-04-08T05:31:32;100889.53;;;10.08;83.77
36234;BME280;43467;50.890;5.982;2023-04-08T05:33:57;100894.28;;;9.98;84.66
36234;BME280;43467;50.890;5.982;2023-04-08T05:36:23;100898.97;;;9.90;85.17
36234;BME280;43467;50.890;5.982;2023-04-08T05:38:48;100899.72;;;9.66;86.02
36234;BME280;43467;50.890;5.982;2023-04-08T05:41:14;100901.06;;;9.51;87.74
36234;BME280;43467;50.890;5.982;2023-04-08T05:43:39;100907.09;;;9.56;87.92
36234;BME280;43467;50.890;5.982;2023-04-08T05:46:08;100902.69;;;9.55;88.03
36234;BME280;43467;50.890;5.982;2023-04-08T05:48:34;100907.25;;;9.50;88.08
36234;BME280;43467;50.890;5.982;2023-04-08T05:51:00;100909.72;;;9.56;87.98
36234;BME280;43467;50.890;5.982;2023-04-08T05:53:25;100917.31;;;9.67;87.55
36234;BME280;43467;50.890;5.982;2023-04-08T05:55:51;100915.22;;;9.78;87.28
36234;BME280;43467;50.890;5.982;2023-04-08T05:58:16;100913.09;;;9.89;86.42
36234;BME280;43467;50.890;5.982;2023-04-08T06:00:42;100923.66;;;9.89;86.41
36234;BME280;43467;50.890;5.982;2023-04-08T06:03:07;100919.91;;;9.96;85.95
36234;BME280;43467;50.890;5.982;2023-04-08T06:05:32;100903.28;;;9.93;86.25
36234;BME280;43467;50.890;5.982;2023-04-08T06:07:58;100916.28;;;9.99;85.95
36234;BME280;43467;50.890;5.982;2023-04-08T06:10:23;100924.28;;;9.97;86.12
36234;BME280;43467;50.890;5.982;2023-04-08T06:12:48;100920.81;;;9.95;86.37
36234;BME280;43467;50.890;5.982;2023-04-08T06:15:14;100913.59;;;10.00;86.26
36234;BME280;43467;50.890;5.982;2023-04-08T06:17:41;100925.78;;;10.06;86.46
36234;BME280;43467;50.890;5.982;2023-04-08T06:20:07;100926.78;;;10.02;86.29
36234;BME280;43467;50.890;5.982;2023-04-08T06:22:35;100934.03;;;9.95;86.34
36234;BME280;43467;50.890;5.982;2023-04-08T06:25:02;100932.94;;;9.74;87.89
36234;BME280;43467;50.890;5.982;2023-04-08T06:27:27;100940.59;;;9.84;87.58
36234;BME280;43467;50.890;5.982;2023-04-08T06:29:53;100944.06;;;9.86;87.37
36234;BME280;43467;50.890;5.982;2023-04-08T06:32:19;100943.06;;;9.90;87.34
36234;BME280;43467;50.890;5.982;2023-04-08T06:34:45;100947.84;;;10.05;86.78
36234;BME280;43467;50.890;5.982;2023-04-08T06:37:11;100944.34;;;10.04;86.94
36234;BME280;43467;50.890;5.982;2023-04-08T06:39:36;100950.22;;;10.14;86.72
36234;BME280;43467;50.890;5.982;2023-04-08T06:42:02;100948.56;;;10.10;86.99
36234;BME280;43467;50.890;5.982;2023-04-08T06:44:27;100958.94;;;10.17;86.66
36234;BME280;43467;50.890;5.982;2023-04-08T06:46:53;100957.53;;;10.06;87.38
36234;BME280;43467;50.890;5.982;2023-04-08T06:49:18;100962.50;;;10.16;87.64
36234;BME280;43467;50.890;5.982;2023-04-08T06:51:43;100958.66;;;10.27;87.16
36234;BME280;43467;50.890;5.982;2023-04-08T06:54:09;100960.22;;;10.32;86.51
36234;BME280;43467;50.890;5.982;2023-04-08T06:56:35;100962.94;;;10.31;86.87
36234;BME280;43467;50.890;5.982;2023-04-08T06:59:01;100969.06;;;10.31;86.67
36234;BME280;43467;50.890;5.982;2023-04-08T07:01:27;100969.88;;;10.33;86.80
36234;BME280;43467;50.890;5.982;2023-04-08T07:03:52;100979.66;;;10.31;87.08
36234;BME280;43467;50.890;5.982;2023-04-08T07:06:18;100972.56;;;10.32;86.86
36234;BME280;43467;50.890;5.982;2023-04-08T07:08:43;100965.25;;;10.40;86.79
36234;BME280;43467;50.890;5.982;2023-04-08T07:11:08;100964.03;;;10.23;87.74
36234;BME280;43467;50.890;5.982;2023-04-08T07:13:34;100967.44;;;10.27;87.00
36234;BME280;43467;50.890;5.982;2023-04-08T07:15:59;100975.03;;;10.38;86.58
36234;BME280;43467;50.890;5.982;2023-04-08T07:18:25;100972.28;;;10.41;86.76
36234;BME280;43467;50.890;5.982;2023-04-08T07:20:52;100980.22;;;10.41;85.69
36234;BME280;43467;50.890;5.982;2023-04-08T07:23:18;100986.28;;;10.44;85.61
36234;BME280;43467;50.890;5.982;2023-04-08T07:25:44;100987.81;;;10.51;85.45
36234;BME280;43467;50.890;5.982;2023-04-08T07:28:09;100987.63;;;10.56;85.44
36234;BME280;43467;50.890;5.982;2023-04-08T07:30:35;100983.31;;;10.53;85.36
36234;BME280;43467;50.890;5.982;2023-04-08T07:33:00;100999.72;;;10.64;84.42
36234;BME280;43467;50.890;5.982;2023-04-08T07:35:26;100996.53;;;10.55;84.22
36234;BME280;43467;50.890;5.982;2023-04-08T07:37:52;100999.81;;;10.61;84.43
36234;BME280;43467;50.890;5.982;2023-04-08T07:40:17;101010.16;;;10.69;84.28
36234;BME280;43467;50.890;5.982;2023-04-08T07:42:43;101002.09;;;10.72;84.36
36234;BME280;43467;50.890;5.982;2023-04-08T07:45:09;101007.38;;;10.72;84.39
36234;BME280;43467;50.890;5.982;2023-04-08T07:47:34;101000.84;;;10.57;83.89
36234;BME280;43467;50.890;5.982;2023-04-08T07:50:01;101013.91;;;10.63;84.39
36234;BME280;43467;50.890;5.982;2023-04-08T07:52:26;101012.75;;;10.70;84.59
36234;BME280;43467;50.890;5.982;2023-04-08T07:54:52;101013.56;;;10.72;83.80
36234;BME280;43467;50.890;5.982;2023-04-08T07:57:17;101018.69;;;10.77;83.79
36234;BME280;43467;50.890;5.982;2023-04-08T07:59:42;101011.63;;;10.78;83.63
36234;BME280;43467;50.890;5.982;2023-04-08T08:02:08;101018.78;;;10.76;83.29
36234;BME280;43467;50.890;5.982;2023-04-08T08:04:33;101008.34;;;10.71;84.06
36234;BME280;43467;50.890;5.982;2023-04-08T08:06:59;101023.41;;;10.69;83.96
36234;BME280;43467;50.890;5.982;2023-04-08T08:09:24;101021.72;;;10.66;83.62
36234;BME280;43467;50.890;5.982;2023-04-08T08:11:50;101026.66;;;10.77;83.59
36234;BME280;43467;50.890;5.982;2023-04-08T08:14:15;101029.25;;;10.79;83.55
36234;BME280;43467;50.890;5.982;2023-04-08T08:16:40;101024.59;;;10.85;83.53
36234;BME280;43467;50.890;5.982;2023-04-08T08:19:06;101029.72;;;10.91;83.42
36234;BME280;43467;50.890;5.982;2023-04-08T08:21:35;101026.84;;;10.97;83.29
36234;BME280;43467;50.890;5.982;2023-04-08T08:24:01;101033.69;;;11.04;82.74
36234;BME280;43467;50.890;5.982;2023-04-08T08:26:26;101033.72;;;11.03;82.95
36234;BME280;43467;50.890;5.982;2023-04-08T08:28:53;101032.56;;;11.10;83.01
36234;BME280;43467;50.890;5.982;2023-04-08T08:31:18;101034.03;;;11.18;82.49
36234;BME280;43467;50.890;5.982;2023-04-08T08:33:44;101035.72;;;11.21;82.50
36234;BME280;43467;50.890;5.982;2023-04-08T08:36:10;101039.03;;;11.28;81.78
36234;BME280;43467;50.890;5.982;2023-04-08T08:38:35;101025.88;;;11.25;81.45
36234;BME280;43467;50.890;5.982;2023-04-08T08:41:00;101040.47;;;11.36;80.81
36234;BME280;43467;50.890;5.982;2023-04-08T08:43:28;101040.38;;;11.39;80.56
36234;BME280;43467;50.890;5.982;2023-04-08T08:45:54;101052.31;;;11.51;80.00
36234;BME280;43467;50.890;5.982;2023-04-08T08:48:19;101053.34;;;11.47;79.36
36234;BME280;43467;50.890;5.982;2023-04-08T08:50:45;101054.31;;;11.44;79.34
36234;BME280;43467;50.890;5.982;2023-04-08T08:53:11;101061.09;;;11.53;78.54
36234;BME280;43467;50.890;5.982;2023-04-08T08:55:37;101049.25;;;11.61;78.60
36234;BME280;43467;50.890;5.982;2023-04-08T08:58:04;101056.94;;;11.69;78.46
36234;BME280;43467;50.890;5.982;2023-04-08T09:00:38;101046.34;;;11.69;78.11
36234;BME280;43467;50.890;5.982;2023-04-08T09:03:19;101059.22;;;11.80;77.35
36234;BME280;43467;50.890;5.982;2023-04-08T09:08:24;101062.16;;;11.95;77.26
36234;BME280;43467;50.890;5.982;2023-04-08T09:10:50;101061.75;;;12.06;77.60
36234;BME280;43467;50.890;5.982;2023-04-08T09:13:16;101063.38;;;12.10;77.09
36234;BME280;43467;50.890;5.982;2023-04-08T09:16:03;101068.47;;;12.15;76.56
36234;BME280;43467;50.890;5.982;2023-04-08T09:18:29;101072.81;;;12.17;75.87
36234;BME280;43467;50.890;5.982;2023-04-08T09:20:55;101071.81;;;12.20;76.27
36234;BME280;43467;50.890;5.982;2023-04-08T09:23:20;101063.69;;;12.24;76.50
36234;BME280;43467;50.890;5.982;2023-04-08T09:25:46;101068.81;;;12.29;76.03
36234;BME280;43467;50.890;5.982;2023-04-08T09:28:18;101067.72;;;12.34;75.72
36234;BME280;43467;50.890;5.982;2023-04-08T09:30:47;101080.69;;;12.42;75.63
36234;BME280;43467;50.890;5.982;2023-04-08T09:33:12;101072.47;;;12.48;75.32
36234;BME280;43467;50.890;5.982;2023-04-08T09:35:38;101073.41;;;12.47;74.31
36234;BME280;43467;50.890;5.982;2023-04-08T09:38:04;101080.69;;;12.42;73.43
36234;BME280;43467;50.890;5.982;2023-04-08T09:40:33;101073.34;;;12.48;73.58
36234;BME280;43467;50.890;5.982;2023-04-08T09:43:04;101080.06;;;12.57;73.75
36234;BME280;43467;50.890;5.982;2023-04-08T09:45:32;101079.06;;;12.59;72.63
36234;BME280;43467;50.890;5.982;2023-04-08T09:50:35;101084.44;;;12.80;71.72
36234;BME280;43467;50.890;5.982;2023-04-08T09:53:16;101082.53;;;12.83;70.46
36234;BME280;43467;50.890;5.982;2023-04-08T09:55:48;101079.63;;;12.89;71.14
36234;BME280;43467;50.890;5.982;2023-04-08T09:58:15;101081.28;;;12.92;70.97
36234;BME280;43467;50.890;5.982;2023-04-08T10:00:46;101078.31;;;12.99;69.56
36234;BME280;43467;50.890;5.982;2023-04-08T10:03:25;101088.88;;;13.01;68.94
36234;BME280;43467;50.890;5.982;2023-04-08T10:05:52;101071.41;;;12.95;69.71
36234;BME280;43467;50.890;5.982;2023-04-08T10:08:18;101075.47;;;13.04;68.93
36234;BME280;43467;50.890;5.982;2023-04-08T10:10:45;101073.25;;;13.15;69.46
36234;BME280;43467;50.890;5.982;2023-04-08T10:13:11;101081.06;;;13.18;67.86
36234;BME280;43467;50.890;5.982;2023-04-08T10:15:37;101074.66;;;13.24;67.20
36234;BME280;43467;50.890;5.982;2023-04-08T10:27:53;101081.16;;;12.95;66.71
36234;BME280;43467;50.890;5.982;2023-04-08T10:32:56;101081.13;;;12.75;66.37
36234;BME280;43467;50.890;5.982;2023-04-08T10:35:37;101071.28;;;12.77;66.26
36234;BME280;43467;50.890;5.982;2023-04-08T10:38:07;101068.38;;;12.83;67.44
36234;BME280;43467;50.890;5.982;2023-04-08T10:40:37;101070.19;;;12.82;67.90
36234;BME280;43467;50.890;5.982;2023-04-08T10:43:10;101070.22;;;12.81;65.25
36234;BME280;43467;50.890;5.982;2023-04-08T10:45:36;101069.34;;;12.80;63.97
36234;BME280;43467;50.890;5.982;2023-04-08T10:48:21;101061.00;;;12.89;63.48
36234;BME280;43467;50.890;5.982;2023-04-08T10:50:55;101067.78;;;12.96;62.57
36234;BME280;43467;50.890;5.982;2023-04-08T10:53:28;101056.84;;;13.04;61.52
36234;BME280;43467;50.890;5.982;2023-04-08T10:56:11;101062.81;;;13.09;59.44
36234;BME280;43467;50.890;5.982;2023-04-08T10:58:50;101057.34;;;13.34;59.55
36234;BME280;43467;50.890;5.982;2023-04-08T11:01:16;101055.59;;;13.53;59.35
36234;BME280;43467;50.890;5.982;2023-04-08T11:03:42;101050.75;;;13.42;56.47
36234;BME280;43467;50.890;5.982;2023-04-08T11:06:07;101054.53;;;13.37;57.35
36234;BME280;43467;50.890;5.982;2023-04-08T11:08:34;101055.41;;;13.37;58.93
36234;BME280;43467;50.890;5.982;2023-04-08T11:11:01;101058.94;;;13.38;58.04
36234;BME280;43467;50.890;5.982;2023-04-08T11:13:27;101050.28;;;13.33;58.05
36234;BME280;43467;50.890;5.982;2023-04-08T11:16:02;101058.16;;;13.36;57.88
36234;BME280;43467;50.890;5.982;2023-04-08T11:18:29;101045.69;;;13.57;58.51
36234;BME280;43467;50.890;5.982;2023-04-08T11:20:56;101053.84;;;13.72;56.44
36234;BME280;43467;50.890;5.982;2023-04-08T11:23:24;101048.94;;;13.82;55.41
36234;BME280;43467;50.890;5.982;2023-04-08T11:25:50;101044.06;;;13.91;54.82
36234;BME280;43467;50.890;5.982;2023-04-08T11:28:17;101043.50;;;14.04;54.23
36234;BME280;43467;50.890;5.982;2023-04-08T11:30:42;101044.81;;;14.14;53.59
36234;BME280;43467;50.890;5.982;2023-04-08T11:33:08;101039.75;;;14.26;53.80
36234;BME280;43467;50.890;5.982;2023-04-08T11:35:39;101046.31;;;14.38;53.18
36234;BME280;43467;50.890;5.982;2023-04-08T11:38:04;101029.59;;;14.34;52.94
36234;BME280;43467;50.890;5.982;2023-04-08T11:40:30;101048.31;;;14.33;53.06
36234;BME280;43467;50.890;5.982;2023-04-08T11:42:55;101047.81;;;14.25;53.37
36234;BME280;43467;50.890;5.982;2023-04-08T11:45:21;101045.16;;;14.25;54.41
36234;BME280;43467;50.890;5.982;2023-04-08T11:47:47;101045.09;;;14.26;53.79
36234;BME280;43467;50.890;5.982;2023-04-08T11:50:24;101044.94;;;14.29;52.46
36234;BME280;43467;50.890;5.982;2023-04-08T11:52:52;101053.84;;;14.28;53.12
36234;BME280;43467;50.890;5.982;2023-04-08T11:55:26;101058.03;;;14.34;52.30
36234;BME280;43467;50.890;5.982;2023-04-08T11:57:52;101058.47;;;14.43;53.25
36234;BME280;43467;50.890;5.982;2023-04-08T12:00:18;101054.31;;;14.38;53.26
36234;BME280;43467;50.890;5.982;2023-04-08T12:02:44;101052.19;;;14.45;53.83
36234;BME280;43467;50.890;5.982;2023-04-08T12:05:12;101050.69;;;14.39;53.62
36234;BME280;43467;50.890;5.982;2023-04-08T12:07:38;101048.47;;;14.30;53.34
36234;BME280;43467;50.890;5.982;2023-04-08T12:10:04;101044.22;;;14.26;53.33
36234;BME280;43467;50.890;5.982;2023-04-08T12:12:29;101044.50;;;14.20;50.97
36234;BME280;43467;50.890;5.982;2023-04-08T12:14:55;101048.59;;;14.27;51.80
36234;BME280;43467;50.890;5.982;2023-04-08T12:17:21;101047.50;;;14.31;51.96
36234;BME280;43467;50.890;5.982;2023-04-08T12:19:46;101049.06;;;14.36;51.46
36234;BME280;43467;50.890;5.982;2023-04-08T12:22:11;101043.13;;;14.30;52.78
36234;BME280;43467;50.890;5.982;2023-04-08T12:24:37;101045.91;;;14.27;52.22
36234;BME280;43467;50.890;5.982;2023-04-08T12:27:02;101046.31;;;14.38;53.77
36234;BME280;43467;50.890;5.982;2023-04-08T12:29:29;101049.69;;;14.41;54.30
36234;BME280;43467;50.890;5.982;2023-04-08T12:31:54;101050.34;;;14.47;53.90
36234;BME280;43467;50.890;5.982;2023-04-08T12:34:20;101042.75;;;14.56;53.65
36234;BME280;43467;50.890;5.982;2023-04-08T12:36:45;101048.66;;;14.63;52.41
36234;BME280;43467;50.890;5.982;2023-04-08T12:39:11;101055.06;;;14.76;52.98
36234;BME280;43467;50.890;5.982;2023-04-08T12:41:37;101048.97;;;14.74;51.96
36234;BME280;43467;50.890;5.982;2023-04-08T12:44:02;101046.59;;;14.68;51.74
36234;BME280;43467;50.890;5.982;2023-04-08T12:46:28;101051.63;;;14.74;52.89
36234;BME280;43467;50.890;5.982;2023-04-08T12:48:53;101046.00;;;14.63;52.69
36234;BME280;43467;50.890;5.982;2023-04-08T12:51:18;101052.03;;;14.66;52.51
36234;BME280;43467;50.890;5.982;2023-04-08T12:53:44;101045.28;;;14.76;51.99
36234;BME280;43467;50.890;5.982;2023-04-08T12:56:10;101042.00;;;14.88;51.76
36234;BME280;43467;50.890;5.982;2023-04-08T12:58:35;101055.56;;;15.01;51.20
36234;BME280;43467;50.890;5.982;2023-04-08T13:01:00;101045.84;;;15.17;52.57
36234;BME280;43467;50.890;5.982;2023-04-08T13:03:26;101048.97;;;15.25;52.26
36234;BME280;43467;50.890;5.982;2023-04-08T13:05:54;101035.34;;;15.31;52.19
36234;BME280;43467;50.890;5.982;2023-04-08T13:08:20;101040.56;;;15.33;51.75
36234;BME280;43467;50.890;5.982;2023-04-08T13:10:46;101048.63;;;15.16;50.44
36234;BME280;43467;50.890;5.982;2023-04-08T13:13:12;101043.28;;;14.99;50.58